South Poultney, Vermont
Current Conditions -  °F | °C
As of 10:55 AM on Friday 28 Nov 2014 (Local Time) from KRUT Reporting Station
Broken Clouds Broken Clouds  
Wind Chill: 15°   Ceiling: 2400
Heat Index: 25°   Visibility: 10mi
Dew Point: 18°   Wind: 9mph
Humidity: 74%   Direction: 260°W
Pressure: 30.08"   Gusts: NA
Location:  43.5323°N, 73.1932°W
Report Text: KRUT 281555Z 26008KT 240V300 10SM BKN024 M04/M08 A3008 RMK AO1
Loading
Personal Weather Stations






























Interactive Weather Map New forecast layout! Learn more

10-Day Weather Forecast

Advertisements
Track Severe Weather on mobile